sensor_id;sensor_type;location;lat;lon;timestamp;P1;durP1;ratioP1;P2;durP2;ratioP2
31531;SDS011;23787;52.180;5.288;2022-10-16T00:05:09;237.20;;;222.30;;
31531;SDS011;23787;52.180;5.288;2022-10-16T00:20:09;239.80;;;225.20;;
31531;SDS011;23787;52.180;5.288;2022-10-16T00:50:13;223.80;;;209.70;;
31531;SDS011;23787;52.180;5.288;2022-10-16T01:10:19;227.80;;;214.70;;
31531;SDS011;23787;52.180;5.288;2022-10-16T01:15:17;227.80;;;214.70;;
31531;SDS011;23787;52.180;5.288;2022-10-16T01:20:14;227.80;;;214.70;;
31531;SDS011;23787;52.180;5.288;2022-10-16T01:25:18;198.70;;;186.90;;
31531;SDS011;23787;52.180;5.288;2022-10-16T01:35:12;198.70;;;186.90;;
31531;SDS011;23787;52.180;5.288;2022-10-16T01:40:12;224.00;;;209.80;;
31531;SDS011;23787;52.180;5.288;2022-10-16T02:00:12;221.50;;;207.80;;
31531;SDS011;23787;52.180;5.288;2022-10-16T02:05:14;221.50;;;207.80;;
31531;SDS011;23787;52.180;5.288;2022-10-16T02:10:10;245.00;;;230.60;;
31531;SDS011;23787;52.180;5.288;2022-10-16T02:15:09;245.00;;;230.60;;
31531;SDS011;23787;52.180;5.288;2022-10-16T02:20:10;245.00;;;230.60;;
31531;SDS011;23787;52.180;5.288;2022-10-16T02:30:14;260.00;;;244.50;;
31531;SDS011;23787;52.180;5.288;2022-10-16T02:40:10;256.00;;;241.20;;
31531;SDS011;23787;52.180;5.288;2022-10-16T02:45:11;256.00;;;241.20;;
31531;SDS011;23787;52.180;5.288;2022-10-16T02:50:10;256.00;;;241.20;;
31531;SDS011;23787;52.180;5.288;2022-10-16T02:55:09;241.30;;;226.10;;
31531;SDS011;23787;52.180;5.288;2022-10-16T03:07:34;unknown;;;unknown;;
31531;SDS011;23787;52.180;5.288;2022-10-16T03:12:33;272.90;;;256.00;;
31531;SDS011;23787;52.180;5.288;2022-10-16T03:22:34;272.90;;;256.00;;
31531;SDS011;23787;52.180;5.288;2022-10-16T03:37:33;257.60;;;241.20;;
31531;SDS011;23787;52.180;5.288;2022-10-16T03:42:33;242.30;;;226.80;;
31531;SDS011;23787;52.180;5.288;2022-10-16T03:47:33;242.30;;;226.80;;
31531;SDS011;23787;52.180;5.288;2022-10-16T03:57:34;223.80;;;209.50;;
31531;SDS011;23787;52.180;5.288;2022-10-16T04:07:34;223.80;;;209.50;;
31531;SDS011;23787;52.180;5.288;2022-10-16T04:37:33;217.00;;;204.30;;
31531;SDS011;23787;52.180;5.288;2022-10-16T04:52:34;216.60;;;203.00;;
31531;SDS011;23787;52.180;5.288;2022-10-16T04:57:33;211.70;;;198.40;;
31531;SDS011;23787;52.180;5.288;2022-10-16T05:02:34;211.70;;;198.40;;
31531;SDS011;23787;52.180;5.288;2022-10-16T05:07:34;211.70;;;198.40;;
31531;SDS011;23787;52.180;5.288;2022-10-16T05:12:33;230.40;;;216.60;;
31531;SDS011;23787;52.180;5.288;2022-10-16T05:27:33;214.80;;;201.90;;
31531;SDS011;23787;52.180;5.288;2022-10-16T05:32:33;214.80;;;201.90;;
31531;SDS011;23787;52.180;5.288;2022-10-16T05:37:34;214.80;;;201.90;;
31531;SDS011;23787;52.180;5.288;2022-10-16T05:42:34;213.20;;;200.80;;
31531;SDS011;23787;52.180;5.288;2022-10-16T05:52:34;240.10;;;224.60;;
31531;SDS011;23787;52.180;5.288;2022-10-16T05:57:34;240.10;;;224.60;;
31531;SDS011;23787;52.180;5.288;2022-10-16T06:07:34;214.30;;;201.10;;
31531;SDS011;23787;52.180;5.288;2022-10-16T06:12:34;214.30;;;201.10;;
31531;SDS011;23787;52.180;5.288;2022-10-16T06:17:34;214.30;;;201.10;;
31531;SDS011;23787;52.180;5.288;2022-10-16T06:22:33;218.20;;;205.60;;
31531;SDS011;23787;52.180;5.288;2022-10-16T06:42:34;216.50;;;203.30;;
31531;SDS011;23787;52.180;5.288;2022-10-16T06:47:34;216.50;;;203.30;;
31531;SDS011;23787;52.180;5.288;2022-10-16T06:57:34;216.90;;;203.70;;
31531;SDS011;23787;52.180;5.288;2022-10-16T07:02:34;216.90;;;203.70;;
31531;SDS011;23787;52.180;5.288;2022-10-16T07:07:34;249.80;;;234.60;;
31531;SDS011;23787;52.180;5.288;2022-10-16T07:17:34;249.80;;;234.60;;
31531;SDS011;23787;52.180;5.288;2022-10-16T07:22:34;240.30;;;225.60;;
31531;SDS011;23787;52.180;5.288;2022-10-16T07:27:34;240.30;;;225.60;;
31531;SDS011;23787;52.180;5.288;2022-10-16T07:32:34;240.30;;;225.60;;
31531;SDS011;23787;52.180;5.288;2022-10-16T07:37:34;254.10;;;238.30;;
31531;SDS011;23787;52.180;5.288;2022-10-16T07:42:34;254.10;;;238.30;;
31531;SDS011;23787;52.180;5.288;2022-10-16T07:47:34;254.10;;;238.30;;
31531;SDS011;23787;52.180;5.288;2022-10-16T07:52:34;253.70;;;237.80;;
31531;SDS011;23787;52.180;5.288;2022-10-16T07:57:34;253.70;;;237.80;;
31531;SDS011;23787;52.180;5.288;2022-10-16T08:02:34;253.70;;;237.80;;
31531;SDS011;23787;52.180;5.288;2022-10-16T08:07:34;261.30;;;244.90;;
31531;SDS011;23787;52.180;5.288;2022-10-16T08:12:34;261.30;;;244.90;;
31531;SDS011;23787;52.180;5.288;2022-10-16T08:17:34;261.30;;;244.90;;
31531;SDS011;23787;52.180;5.288;2022-10-16T08:22:34;277.00;;;259.80;;
31531;SDS011;23787;52.180;5.288;2022-10-16T08:27:34;277.00;;;259.80;;
31531;SDS011;23787;52.180;5.288;2022-10-16T08:32:34;277.00;;;259.80;;
31531;SDS011;23787;52.180;5.288;2022-10-16T08:37:34;296.20;;;277.80;;
31531;SDS011;23787;52.180;5.288;2022-10-16T08:42:43;296.20;;;277.80;;
31531;SDS011;23787;52.180;5.288;2022-10-16T08:47:41;296.20;;;277.80;;
31531;SDS011;23787;52.180;5.288;2022-10-16T08:52:35;359.40;;;334.80;;
31531;SDS011;23787;52.180;5.288;2022-10-16T08:57:34;359.40;;;334.80;;
31531;SDS011;23787;52.180;5.288;2022-10-16T09:02:37;359.40;;;334.80;;
31531;SDS011;23787;52.180;5.288;2022-10-16T09:07:41;388.00;;;357.80;;
31531;SDS011;23787;52.180;5.288;2022-10-16T09:12:38;388.00;;;357.80;;
31531;SDS011;23787;52.180;5.288;2022-10-16T09:17:41;388.00;;;357.80;;
31531;SDS011;23787;52.180;5.288;2022-10-16T09:22:34;336.30;;;309.00;;
31531;SDS011;23787;52.180;5.288;2022-10-16T09:27:34;336.30;;;309.00;;
31531;SDS011;23787;52.180;5.288;2022-10-16T09:32:34;336.30;;;309.00;;
31531;SDS011;23787;52.180;5.288;2022-10-16T09:37:34;312.10;;;285.50;;
31531;SDS011;23787;52.180;5.288;2022-10-16T09:42:36;312.10;;;285.50;;
31531;SDS011;23787;52.180;5.288;2022-10-16T09:47:44;312.10;;;285.50;;
31531;SDS011;23787;52.180;5.288;2022-10-16T09:52:34;220.70;;;200.40;;
31531;SDS011;23787;52.180;5.288;2022-10-16T09:57:34;220.70;;;200.40;;
31531;SDS011;23787;52.180;5.288;2022-10-16T10:02:36;220.70;;;200.40;;
31531;SDS011;23787;52.180;5.288;2022-10-16T10:07:38;174.10;;;157.50;;
31531;SDS011;23787;52.180;5.288;2022-10-16T10:12:35;174.10;;;157.50;;
31531;SDS011;23787;52.180;5.288;2022-10-16T10:17:45;174.10;;;157.50;;
31531;SDS011;23787;52.180;5.288;2022-10-16T10:22:40;165.40;;;150.00;;
31531;SDS011;23787;52.180;5.288;2022-10-16T10:27:39;165.40;;;150.00;;
31531;SDS011;23787;52.180;5.288;2022-10-16T10:32:37;165.40;;;150.00;;
31531;SDS011;23787;52.180;5.288;2022-10-16T10:37:41;176.10;;;160.60;;
31531;SDS011;23787;52.180;5.288;2022-10-16T10:42:39;176.10;;;160.60;;
31531;SDS011;23787;52.180;5.288;2022-10-16T10:47:40;176.10;;;160.60;;
31531;SDS011;23787;52.180;5.288;2022-10-16T10:52:41;143.60;;;130.00;;
31531;SDS011;23787;52.180;5.288;2022-10-16T10:57:41;143.60;;;130.00;;
31531;SDS011;23787;52.180;5.288;2022-10-16T11:02:37;143.60;;;130.00;;
31531;SDS011;23787;52.180;5.288;2022-10-16T11:07:38;124.80;;;113.20;;
31531;SDS011;23787;52.180;5.288;2022-10-16T11:12:36;124.80;;;113.20;;
31531;SDS011;23787;52.180;5.288;2022-10-16T11:17:39;124.80;;;113.20;;
31531;SDS011;23787;52.180;5.288;2022-10-16T11:22:36;99.10;;;89.60;;
31531;SDS011;23787;52.180;5.288;2022-10-16T11:27:38;99.10;;;89.60;;
31531;SDS011;23787;52.180;5.288;2022-10-16T11:32:42;99.10;;;89.60;;
31531;SDS011;23787;52.180;5.288;2022-10-16T11:37:38;98.60;;;89.20;;
31531;SDS011;23787;52.180;5.288;2022-10-16T11:42:38;98.60;;;89.20;;
31531;SDS011;23787;52.180;5.288;2022-10-16T11:47:35;98.60;;;89.20;;
31531;SDS011;23787;52.180;5.288;2022-10-16T11:52:40;88.30;;;79.00;;
31531;SDS011;23787;52.180;5.288;2022-10-16T11:57:39;88.30;;;79.00;;
31531;SDS011;23787;52.180;5.288;2022-10-16T12:07:37;76.80;;;69.50;;
31531;SDS011;23787;52.180;5.288;2022-10-16T12:12:38;76.80;;;69.50;;
31531;SDS011;23787;52.180;5.288;2022-10-16T12:17:35;76.80;;;69.50;;
31531;SDS011;23787;52.180;5.288;2022-10-16T12:22:34;64.00;;;58.10;;
31531;SDS011;23787;52.180;5.288;2022-10-16T12:27:34;64.00;;;58.10;;
31531;SDS011;23787;52.180;5.288;2022-10-16T12:32:36;64.00;;;58.10;;
31531;SDS011;23787;52.180;5.288;2022-10-16T12:37:36;60.00;;;54.50;;
31531;SDS011;23787;52.180;5.288;2022-10-16T12:42:34;60.00;;;54.50;;
31531;SDS011;23787;52.180;5.288;2022-10-16T12:47:38;60.00;;;54.50;;
31531;SDS011;23787;52.180;5.288;2022-10-16T12:52:37;56.60;;;51.40;;
31531;SDS011;23787;52.180;5.288;2022-10-16T12:57:42;56.60;;;51.40;;
31531;SDS011;23787;52.180;5.288;2022-10-16T13:02:49;56.60;;;51.40;;
31531;SDS011;23787;52.180;5.288;2022-10-16T13:07:48;56.90;;;51.50;;
31531;SDS011;23787;52.180;5.288;2022-10-16T13:12:45;56.90;;;51.50;;
31531;SDS011;23787;52.180;5.288;2022-10-16T13:17:41;56.90;;;51.50;;
31531;SDS011;23787;52.180;5.288;2022-10-16T13:22:41;59.00;;;53.40;;
31531;SDS011;23787;52.180;5.288;2022-10-16T13:27:40;59.00;;;53.40;;
31531;SDS011;23787;52.180;5.288;2022-10-16T13:32:34;59.00;;;53.40;;
31531;SDS011;23787;52.180;5.288;2022-10-16T13:37:34;63.20;;;57.30;;
31531;SDS011;23787;52.180;5.288;2022-10-16T13:47:34;63.20;;;57.30;;
31531;SDS011;23787;52.180;5.288;2022-10-16T13:52:34;55.20;;;49.60;;
31531;SDS011;23787;52.180;5.288;2022-10-16T13:57:34;55.20;;;49.60;;
31531;SDS011;23787;52.180;5.288;2022-10-16T14:02:37;55.20;;;49.60;;
31531;SDS011;23787;52.180;5.288;2022-10-16T14:07:34;72.70;;;65.50;;
31531;SDS011;23787;52.180;5.288;2022-10-16T14:17:35;72.70;;;65.50;;
31531;SDS011;23787;52.180;5.288;2022-10-16T14:22:37;75.50;;;68.00;;
31531;SDS011;23787;52.180;5.288;2022-10-16T14:27:36;75.50;;;68.00;;
31531;SDS011;23787;52.180;5.288;2022-10-16T14:32:34;75.50;;;68.00;;
31531;SDS011;23787;52.180;5.288;2022-10-16T14:37:34;85.40;;;76.80;;
31531;SDS011;23787;52.180;5.288;2022-10-16T14:42:34;85.40;;;76.80;;
31531;SDS011;23787;52.180;5.288;2022-10-16T14:47:37;85.40;;;76.80;;
31531;SDS011;23787;52.180;5.288;2022-10-16T14:52:34;80.10;;;72.80;;
31531;SDS011;23787;52.180;5.288;2022-10-16T14:57:36;80.10;;;72.80;;
31531;SDS011;23787;52.180;5.288;2022-10-16T15:02:35;80.10;;;72.80;;
31531;SDS011;23787;52.180;5.288;2022-10-16T15:07:34;110.80;;;100.60;;
31531;SDS011;23787;52.180;5.288;2022-10-16T15:12:34;110.80;;;100.60;;
31531;SDS011;23787;52.180;5.288;2022-10-16T15:27:34;111.70;;;100.60;;
31531;SDS011;23787;52.180;5.288;2022-10-16T15:32:34;111.70;;;100.60;;
31531;SDS011;23787;52.180;5.288;2022-10-16T15:37:34;155.80;;;141.40;;
31531;SDS011;23787;52.180;5.288;2022-10-16T15:42:34;155.80;;;141.40;;
31531;SDS011;23787;52.180;5.288;2022-10-16T15:47:34;155.80;;;141.40;;
31531;SDS011;23787;52.180;5.288;2022-10-16T15:52:34;138.30;;;125.20;;
31531;SDS011;23787;52.180;5.288;2022-10-16T16:02:34;138.30;;;125.20;;
31531;SDS011;23787;52.180;5.288;2022-10-16T16:12:34;165.20;;;150.50;;
31531;SDS011;23787;52.180;5.288;2022-10-16T16:17:35;165.20;;;150.50;;
31531;SDS011;23787;52.180;5.288;2022-10-16T16:22:34;170.60;;;155.00;;
31531;SDS011;23787;52.180;5.288;2022-10-16T16:27:34;170.60;;;155.00;;
31531;SDS011;23787;52.180;5.288;2022-10-16T16:32:34;170.60;;;155.00;;
31531;SDS011;23787;52.180;5.288;2022-10-16T16:37:34;211.10;;;192.80;;
31531;SDS011;23787;52.180;5.288;2022-10-16T16:47:34;211.10;;;192.80;;
31531;SDS011;23787;52.180;5.288;2022-10-16T16:52:35;235.30;;;213.90;;
31531;SDS011;23787;52.180;5.288;2022-10-16T16:57:34;235.30;;;213.90;;
31531;SDS011;23787;52.180;5.288;2022-10-16T17:02:34;235.30;;;213.90;;
31531;SDS011;23787;52.180;5.288;2022-10-16T17:07:34;261.80;;;239.50;;
31531;SDS011;23787;52.180;5.288;2022-10-16T17:12:34;261.80;;;239.50;;
31531;SDS011;23787;52.180;5.288;2022-10-16T17:17:34;261.80;;;239.50;;
31531;SDS011;23787;52.180;5.288;2022-10-16T17:22:34;307.80;;;281.90;;
31531;SDS011;23787;52.180;5.288;2022-10-16T17:32:34;307.80;;;281.90;;
31531;SDS011;23787;52.180;5.288;2022-10-16T17:37:34;316.80;;;290.20;;
31531;SDS011;23787;52.180;5.288;2022-10-16T17:42:34;316.80;;;290.20;;
31531;SDS011;23787;52.180;5.288;2022-10-16T17:46:01;unknown;;;unknown;;
31531;SDS011;23787;52.180;5.288;2022-10-16T17:51:03;330.20;;;305.10;;
31531;SDS011;23787;52.180;5.288;2022-10-16T18:01:00;330.20;;;305.10;;
31531;SDS011;23787;52.180;5.288;2022-10-16T18:06:00;383.30;;;353.50;;
31531;SDS011;23787;52.180;5.288;2022-10-16T18:11:00;383.30;;;353.50;;
31531;SDS011;23787;52.180;5.288;2022-10-16T18:16:00;383.30;;;353.50;;
31531;SDS011;23787;52.180;5.288;2022-10-16T18:21:02;361.80;;;335.90;;
31531;SDS011;23787;52.180;5.288;2022-10-16T18:26:00;361.80;;;335.90;;
31531;SDS011;23787;52.180;5.288;2022-10-16T18:31:01;361.80;;;335.90;;
31531;SDS011;23787;52.180;5.288;2022-10-16T18:36:00;394.00;;;364.10;;
31531;SDS011;23787;52.180;5.288;2022-10-16T18:41:00;394.00;;;364.10;;
31531;SDS011;23787;52.180;5.288;2022-10-16T18:46:03;394.00;;;364.10;;
31531;SDS011;23787;52.180;5.288;2022-10-16T18:51:08;404.10;;;374.20;;
31531;SDS011;23787;52.180;5.288;2022-10-16T18:56:00;404.10;;;374.20;;
31531;SDS011;23787;52.180;5.288;2022-10-16T19:01:03;404.10;;;374.20;;
31531;SDS011;23787;52.180;5.288;2022-10-16T19:06:01;406.50;;;377.10;;
31531;SDS011;23787;52.180;5.288;2022-10-16T19:11:02;406.50;;;377.10;;
31531;SDS011;23787;52.180;5.288;2022-10-16T19:16:00;406.50;;;377.10;;
31531;SDS011;23787;52.180;5.288;2022-10-16T19:20:31;unknown;;;unknown;;
31531;SDS011;23787;52.180;5.288;2022-10-16T19:35:30;394.80;;;367.20;;
31531;SDS011;23787;52.180;5.288;2022-10-16T19:40:30;401.10;;;372.30;;
31531;SDS011;23787;52.180;5.288;2022-10-16T19:45:30;401.10;;;372.30;;
31531;SDS011;23787;52.180;5.288;2022-10-16T19:50:30;401.10;;;372.30;;
31531;SDS011;23787;52.180;5.288;2022-10-16T19:55:30;373.20;;;346.30;;
31531;SDS011;23787;52.180;5.288;2022-10-16T20:00:30;373.20;;;346.30;;
31531;SDS011;23787;52.180;5.288;2022-10-16T20:05:30;373.20;;;346.30;;
31531;SDS011;23787;52.180;5.288;2022-10-16T20:10:30;375.60;;;348.10;;
31531;SDS011;23787;52.180;5.288;2022-10-16T20:15:30;375.60;;;348.10;;
31531;SDS011;23787;52.180;5.288;2022-10-16T20:20:30;375.60;;;348.10;;
31531;SDS011;23787;52.180;5.288;2022-10-16T20:25:33;399.70;;;371.10;;
31531;SDS011;23787;52.180;5.288;2022-10-16T20:35:34;407.80;;;380.30;;
31531;SDS011;23787;52.180;5.288;2022-10-16T20:41:48;407.80;;;380.30;;
31531;SDS011;23787;52.180;5.288;2022-10-16T20:45:30;407.80;;;380.30;;
31531;SDS011;23787;52.180;5.288;2022-10-16T20:50:31;404.50;;;376.40;;
31531;SDS011;23787;52.180;5.288;2022-10-16T20:55:30;404.50;;;376.40;;
31531;SDS011;23787;52.180;5.288;2022-10-16T21:00:30;404.50;;;376.40;;
31531;SDS011;23787;52.180;5.288;2022-10-16T21:05:30;384.90;;;358.70;;
31531;SDS011;23787;52.180;5.288;2022-10-16T21:10:30;384.90;;;358.70;;
31531;SDS011;23787;52.180;5.288;2022-10-16T21:15:30;384.90;;;358.70;;
31531;SDS011;23787;52.180;5.288;2022-10-16T21:20:30;384.70;;;357.60;;
31531;SDS011;23787;52.180;5.288;2022-10-16T21:30:30;384.70;;;357.60;;
31531;SDS011;23787;52.180;5.288;2022-10-16T21:40:30;406.30;;;378.00;;
31531;SDS011;23787;52.180;5.288;2022-10-16T21:45:31;406.30;;;378.00;;
31531;SDS011;23787;52.180;5.288;2022-10-16T21:50:30;371.20;;;346.30;;
31531;SDS011;23787;52.180;5.288;2022-10-16T21:55:34;371.20;;;346.30;;
31531;SDS011;23787;52.180;5.288;2022-10-16T22:00:30;371.20;;;346.30;;
31531;SDS011;23787;52.180;5.288;2022-10-16T22:10:30;360.00;;;335.70;;
31531;SDS011;23787;52.180;5.288;2022-10-16T22:20:30;352.80;;;328.50;;
31531;SDS011;23787;52.180;5.288;2022-10-16T22:30:30;352.80;;;328.50;;
31531;SDS011;23787;52.180;5.288;2022-10-16T22:35:30;368.30;;;342.60;;
31531;SDS011;23787;52.180;5.288;2022-10-16T22:40:32;368.30;;;342.60;;
31531;SDS011;23787;52.180;5.288;2022-10-16T22:45:31;368.30;;;342.60;;
31531;SDS011;23787;52.180;5.288;2022-10-16T23:00:30;365.50;;;340.50;;
31531;SDS011;23787;52.180;5.288;2022-10-16T23:05:30;386.50;;;359.60;;
31531;SDS011;23787;52.180;5.288;2022-10-16T23:15:30;386.50;;;359.60;;
31531;SDS011;23787;52.180;5.288;2022-10-16T23:30:30;365.80;;;340.90;;
31531;SDS011;23787;52.180;5.288;2022-10-16T23:35:30;383.80;;;358.10;;
31531;SDS011;23787;52.180;5.288;2022-10-16T23:50:30;376.90;;;350.80;;
31531;SDS011;23787;52.180;5.288;2022-10-16T23:55:30;376.90;;;350.80;;
